createdAt,value
2019-01-19T00:00:57.379Z,2.60
2019-01-19T00:06:26.091Z,3.10
2019-01-19T00:11:50.596Z,2.53
2019-01-19T00:17:16.204Z,3.00
2019-01-19T00:22:25.391Z,3.53
2019-01-19T00:27:23.157Z,3.40
2019-01-19T00:32:18.620Z,2.67
2019-01-19T00:37:32.097Z,2.63
2019-01-19T00:42:56.378Z,2.10
2019-01-19T00:48:13.726Z,2.27
2019-01-19T00:53:20.860Z,2.10
2019-01-19T00:58:44.233Z,2.20
2019-01-19T01:03:56.835Z,2.63
2019-01-19T01:09:07.896Z,2.03
2019-01-19T01:14:31.893Z,2.20
2019-01-19T01:19:48.239Z,1.83
2019-01-19T01:25:05.308Z,1.57
2019-01-19T01:30:25.854Z,2.20
2019-01-19T01:35:32.655Z,2.27
2019-01-19T01:40:55.354Z,1.80
2019-01-19T01:46:21.097Z,2.30
2019-01-19T01:51:18.841Z,2.07
2019-01-19T01:56:08.885Z,2.20
2019-01-19T02:01:21.335Z,1.87
2019-01-19T02:06:48.129Z,2.23
2019-01-19T02:12:03.684Z,2.10
2019-01-19T02:17:24.086Z,2.63
2019-01-19T02:22:52.881Z,3.20
2019-01-19T02:28:12.497Z,3.00
2019-01-19T02:33:51.762Z,3.53
2019-01-19T02:39:09.088Z,4.13
2019-01-19T02:44:28.984Z,4.20
2019-01-19T02:50:08.328Z,3.77
2019-01-19T02:55:24.438Z,4.33
2019-01-19T03:00:51.552Z,4.00
2019-01-19T03:05:58.548Z,3.53
2019-01-19T03:11:10.102Z,3.47
2019-01-19T03:16:34.805Z,3.10
2019-01-19T03:22:06.402Z,3.30
2019-01-19T03:27:27.242Z,3.43
2019-01-19T03:32:34.334Z,3.17
2019-01-19T03:37:42.621Z,2.93
2019-01-19T03:42:56.395Z,2.73
2019-01-19T03:48:22.106Z,2.27
2019-01-19T03:53:39.265Z,2.10
2019-01-19T03:58:45.083Z,2.10
2019-01-19T04:04:03.563Z,1.80
2019-01-19T04:09:24.807Z,1.87
2019-01-19T04:14:37.205Z,1.90
2019-01-19T04:19:58.436Z,1.70
2019-01-19T04:25:24.204Z,1.73
2019-01-19T04:30:11.191Z,1.80
2019-01-19T04:34:55.893Z,1.50
2019-01-19T04:39:40.784Z,1.40
2019-01-19T04:44:25.379Z,1.50
2019-01-19T04:49:10.581Z,4.00
2019-01-19T04:53:55.298Z,4.90
2019-01-19T04:58:39.899Z,5.33
2019-01-19T05:03:24.657Z,2.50
2019-01-19T05:08:09.239Z,2.37
2019-01-19T05:12:53.854Z,2.43
2019-01-19T05:17:38.584Z,1.90
2019-01-19T05:22:23.081Z,1.57
2019-01-19T05:27:07.666Z,1.90
2019-01-19T05:31:52.349Z,1.63
2019-01-19T05:36:38.445Z,2.07
2019-01-19T05:41:23.613Z,3.67
2019-01-19T05:46:08.250Z,6.17
2019-01-19T05:50:53.181Z,5.90
2019-01-19T05:55:40.015Z,2.67
2019-01-19T06:00:33.689Z,1.40
2019-01-19T06:05:18.514Z,2.00
2019-01-19T06:10:03.140Z,1.80
2019-01-19T06:14:48.164Z,1.90
2019-01-19T06:19:32.929Z,1.30
2019-01-19T06:24:17.562Z,1.53
2019-01-19T06:29:02.340Z,1.33
2019-01-19T06:33:47.207Z,1.40
2019-01-19T06:38:32.517Z,1.57
2019-01-19T06:43:17.108Z,1.53
2019-01-19T06:48:01.859Z,1.63
2019-01-19T06:52:46.831Z,1.53
2019-01-19T06:57:33.024Z,1.70
2019-01-19T07:02:18.033Z,1.87
2019-01-19T07:07:03.099Z,1.30
2019-01-19T07:11:48.255Z,1.70
2019-01-19T07:16:34.050Z,1.63
2019-01-19T07:21:21.373Z,1.30
2019-01-19T07:26:06.761Z,1.83
2019-01-19T07:30:51.551Z,1.80
2019-01-19T07:35:36.134Z,1.67
2019-01-19T07:40:20.932Z,1.83
2019-01-19T07:45:06.142Z,1.80
2019-01-19T07:49:50.914Z,2.40
2019-01-19T07:54:35.530Z,2.37
2019-01-19T07:59:20.148Z,2.10
2019-01-19T08:04:05.764Z,2.30
2019-01-19T08:08:50.497Z,2.37
2019-01-19T08:13:35.307Z,1.93
2019-01-19T08:18:19.861Z,2.03
2019-01-19T08:23:04.405Z,2.20
2019-01-19T08:27:49.156Z,2.27
2019-01-19T08:32:33.854Z,2.20
2019-01-19T08:37:24.450Z,2.67
2019-01-19T08:42:04.765Z,3.57
2019-01-19T08:46:49.366Z,3.50
2019-01-19T08:51:34.459Z,4.60
2019-01-19T08:56:19.140Z,5.33
2019-01-19T09:01:03.656Z,4.50
2019-01-19T09:05:48.403Z,4.57
2019-01-19T09:10:33.096Z,4.70
2019-01-19T09:15:17.975Z,8.03
2019-01-19T09:20:03.717Z,8.90
2019-01-19T09:24:48.284Z,9.33
2019-01-19T09:29:33.227Z,7.40
2019-01-19T09:34:17.794Z,5.90
2019-01-19T09:39:02.459Z,5.10
2019-01-19T09:43:47.228Z,5.13
2019-01-19T09:48:32.011Z,5.30
2019-01-19T09:53:16.850Z,5.27
2019-01-19T09:58:01.647Z,5.03
2019-01-19T10:02:46.213Z,4.80
2019-01-19T10:07:30.883Z,4.70
2019-01-19T10:12:16.254Z,4.40
2019-01-19T10:17:04.123Z,4.37
2019-01-19T10:21:56.482Z,4.73
2019-01-19T10:26:58.633Z,5.77
2019-01-19T10:31:43.407Z,5.43
2019-01-19T10:36:27.972Z,6.50
2019-01-19T10:41:12.490Z,6.20
2019-01-19T10:45:57.220Z,6.83
2019-01-19T10:50:41.683Z,5.70
2019-01-19T10:55:26.768Z,5.63
2019-01-19T11:00:15.587Z,7.53
2019-01-19T11:05:00.556Z,8.17
2019-01-19T11:09:45.254Z,7.57
2019-01-19T11:14:30.017Z,7.00
2019-01-19T11:19:17.498Z,7.07
2019-01-19T11:24:02.237Z,10.47
2019-01-19T11:28:47.013Z,8.47
2019-01-19T11:33:31.852Z,8.97
2019-01-19T11:38:20.226Z,8.50
2019-01-19T11:43:03.744Z,8.73
2019-01-19T11:47:56.209Z,8.43
2019-01-19T11:52:41.296Z,6.40
2019-01-19T11:57:30.464Z,6.47
2019-01-19T12:02:20.203Z,7.27
2019-01-19T12:07:03.786Z,12.90
2019-01-19T12:11:48.586Z,9.20
2019-01-19T12:16:40.900Z,8.47
2019-01-19T12:21:44.883Z,6.23
2019-01-19T12:26:29.824Z,6.20
2019-01-19T12:31:18.816Z,6.37
2019-01-19T12:36:08.690Z,5.97
2019-01-19T12:40:53.679Z,5.10
2019-01-19T12:45:41.591Z,6.70
2019-01-19T12:50:26.746Z,5.43
2019-01-19T12:55:11.956Z,4.83
2019-01-19T12:59:56.969Z,3.23
2019-01-19T13:04:41.942Z,2.50
2019-01-19T13:09:29.701Z,2.60
2019-01-19T13:14:17.912Z,2.93
2019-01-19T13:19:33.387Z,3.13
2019-01-19T13:25:00.882Z,3.40
2019-01-19T13:30:28.434Z,3.50
2019-01-19T13:35:45.633Z,3.10
2019-01-19T13:41:10.802Z,3.10
2019-01-19T13:46:11.340Z,3.10
2019-01-19T13:51:23.607Z,2.67
2019-01-19T13:56:54.291Z,2.80
2019-01-19T14:02:35.732Z,3.60
2019-01-19T14:08:01.534Z,3.17
2019-01-19T14:13:11.868Z,3.00
2019-01-19T14:18:29.002Z,3.00
2019-01-19T14:23:55.706Z,4.80
2019-01-19T14:29:17.392Z,4.67
2019-01-19T14:34:44.646Z,7.57
2019-01-19T14:40:04.673Z,6.87
2019-01-19T14:45:29.071Z,4.40
2019-01-19T14:50:54.032Z,7.87
2019-01-19T15:28:33.305Z,4.93
2019-01-19T15:34:03.442Z,5.13
2019-01-19T15:39:18.676Z,5.23
2019-01-19T15:44:57.945Z,5.30
2019-01-19T15:50:39.638Z,6.13
2019-01-19T15:55:55.972Z,5.50
2019-01-19T16:01:22.483Z,5.80
2019-01-19T16:06:33.475Z,7.20
2019-01-19T16:11:54.535Z,7.63
2019-01-19T16:16:57.701Z,6.90
2019-01-19T16:22:26.207Z,6.83
2019-01-19T16:27:39.824Z,6.40
2019-01-19T16:33:08.098Z,6.83
2019-01-19T16:38:13.807Z,6.90
2019-01-19T16:43:35.907Z,8.57
2019-01-19T16:48:45.832Z,7.43
2019-01-19T16:53:47.986Z,7.43
2019-01-19T16:59:16.758Z,8.57
2019-01-19T17:04:22.839Z,8.07
2019-01-19T17:09:46.464Z,8.47
2019-01-19T17:15:30.234Z,8.90
2019-01-19T17:20:49.771Z,9.10
2019-01-19T17:26:05.778Z,10.03
2019-01-19T17:31:36.040Z,11.07
2019-01-19T17:36:30.523Z,10.33
2019-01-19T17:41:54.788Z,10.33
2019-01-19T17:47:32.908Z,11.50
2019-01-19T17:52:43.704Z,12.20
2019-01-19T17:57:39.246Z,11.77
2019-01-19T18:02:39.416Z,11.60
2019-01-19T18:08:02.281Z,13.50
2019-01-19T18:13:00.827Z,13.73
2019-01-19T18:18:10.334Z,13.30
2019-01-19T18:23:35.610Z,11.80
2019-01-19T18:29:02.433Z,12.40
2019-01-19T18:34:20.884Z,12.30
2019-01-19T18:39:39.728Z,12.20
2019-01-19T18:45:07.414Z,13.53
2019-01-19T18:50:51.171Z,13.83
2019-01-19T18:55:56.254Z,13.50
2019-01-19T19:01:03.478Z,13.27
2019-01-19T19:06:19.736Z,12.30
2019-01-19T19:11:55.118Z,13.80
2019-01-19T19:17:10.127Z,13.90
2019-01-19T19:22:48.463Z,14.00
2019-01-19T19:28:09.591Z,12.93
2019-01-19T19:33:39.791Z,13.17
2019-01-19T19:39:14.969Z,12.60
2019-01-19T19:44:30.254Z,13.67
2019-01-19T19:50:05.267Z,14.37
2019-01-19T19:54:51.818Z,15.13
2019-01-19T19:59:36.507Z,14.83
2019-01-19T20:04:21.311Z,16.50
2019-01-19T20:09:10.063Z,14.57
2019-01-19T20:13:54.704Z,15.30
2019-01-19T20:18:39.595Z,14.00
2019-01-19T20:23:24.223Z,13.90
2019-01-19T20:28:09.136Z,12.87
2019-01-19T20:32:54.316Z,12.37
2019-01-19T20:37:39.090Z,11.90
2019-01-19T20:42:26.300Z,12.13
2019-01-19T20:47:12.252Z,11.70
2019-01-19T20:51:56.967Z,12.00
2019-01-19T20:56:41.709Z,15.90
2019-01-19T21:01:26.522Z,13.10
2019-01-19T21:06:11.175Z,15.50
2019-01-19T21:10:56.296Z,10.93
2019-01-19T21:15:41.104Z,11.63
2019-01-19T21:20:25.910Z,10.60
2019-01-19T21:25:11.362Z,12.87
2019-01-19T21:29:56.009Z,11.43
2019-01-19T21:34:40.826Z,10.57
2019-01-19T21:39:25.655Z,10.90
2019-01-19T21:44:10.405Z,10.30
2019-01-19T21:48:56.104Z,9.77
2019-01-19T21:53:40.956Z,11.43
2019-01-19T21:58:25.685Z,9.87
2019-01-19T22:03:10.610Z,9.93
2019-01-19T22:07:55.250Z,10.40
2019-01-19T22:12:40.145Z,10.97
2019-01-19T22:17:24.899Z,10.63
2019-01-19T22:22:09.973Z,9.70
2019-01-19T22:26:56.018Z,9.63
2019-01-19T22:31:40.987Z,10.20
2019-01-19T22:36:25.954Z,10.03
2019-01-19T22:41:13.164Z,10.10
2019-01-19T22:45:59.222Z,9.30
2019-01-19T22:50:44.695Z,10.73
2019-01-19T22:55:29.326Z,10.30
2019-01-19T23:00:26.251Z,8.83
2019-01-19T23:05:14.511Z,9.43
2019-01-19T23:09:59.352Z,9.73
2019-01-19T23:14:43.970Z,9.27
2019-01-19T23:19:28.730Z,9.53
2019-01-19T23:24:13.268Z,9.13
2019-01-19T23:29:00.408Z,9.67
2019-01-19T23:33:45.219Z,10.17
2019-01-19T23:38:30.127Z,9.53
2019-01-19T23:43:14.954Z,9.40
2019-01-19T23:47:59.860Z,9.67
2019-01-19T23:52:44.509Z,8.80
2019-01-19T23:57:29.040Z,9.73
